createdAt,value
2017-10-19T00:00:01.588Z,82.6
2017-10-19T00:00:15.074Z,82.9
2017-10-19T00:00:28.772Z,83
2017-10-19T00:00:41.689Z,82.8
2017-10-19T00:00:54.602Z,82.9
2017-10-19T00:01:08.055Z,82.8
2017-10-19T00:01:20.977Z,82.8
2017-10-19T00:01:34.460Z,82.7
2017-10-19T00:01:47.361Z,82.8
2017-10-19T00:02:00.285Z,82.9
2017-10-19T00:02:12.680Z,82.8
2017-10-19T00:02:25.609Z,82.7
2017-10-19T00:02:39.046Z,82.8
2017-10-19T00:02:51.974Z,83
2017-10-19T00:03:04.881Z,82.84
2017-10-19T00:03:18.282Z,83.03
2017-10-19T00:03:31.737Z,82.8
2017-10-19T00:03:45.141Z,82.84
2017-10-19T00:03:58.555Z,82.75
2017-10-19T00:04:11.519Z,82.94
2017-10-19T00:04:25.293Z,82.9
2017-10-19T00:04:38.724Z,82.8
2017-10-19T00:04:51.070Z,82.84
2017-10-19T00:05:03.961Z,83.38
2017-10-19T00:05:17.480Z,83
2017-10-19T00:05:31.049Z,83.38
2017-10-19T00:05:44.505Z,82.8
2017-10-19T00:05:56.867Z,82.51
2017-10-19T00:06:10.310Z,82.51
2017-10-19T00:06:23.206Z,82.51
2017-10-19T00:06:36.660Z,82.51
2017-10-19T00:06:49.055Z,83
2017-10-19T00:07:02.531Z,83
2017-10-19T00:07:15.943Z,83
2017-10-19T00:07:28.392Z,82.6
2017-10-19T00:07:41.785Z,82.51
2017-10-19T00:07:55.225Z,82.22
2017-10-19T00:08:08.656Z,82.32
2017-10-19T00:08:22.099Z,82.51
2017-10-19T00:08:36.178Z,82.8
2017-10-19T00:08:49.127Z,82.8
2017-10-19T00:09:02.595Z,82.9
2017-10-19T00:09:16.049Z,82.51
2017-10-19T00:09:29.499Z,82.6
2017-10-19T00:09:42.422Z,82.8
2017-10-19T00:09:55.308Z,82.51
2017-10-19T00:10:08.735Z,82.51
2017-10-19T00:10:22.185Z,82.41
2017-10-19T00:10:35.017Z,82.8
2017-10-19T00:10:47.943Z,82.6
2017-10-19T00:10:59.819Z,82.9
2017-10-19T00:11:13.272Z,82.12
2017-10-19T00:11:26.748Z,82.41
2017-10-19T00:11:39.099Z,82.32
2017-10-19T00:11:52.536Z,82.32
2017-10-19T00:12:04.898Z,82.22
2017-10-19T00:12:17.795Z,82.8
2017-10-19T00:12:29.614Z,82.51
2017-10-19T00:12:43.033Z,82.7
2017-10-19T00:12:56.555Z,82.7
2017-10-19T00:13:09.461Z,82.7
2017-10-19T00:13:22.388Z,83
2017-10-19T00:13:35.349Z,82.8
2017-10-19T00:13:48.253Z,82.6
2017-10-19T00:14:01.734Z,82.51
2017-10-19T00:14:14.634Z,82.6
2017-10-19T00:14:28.106Z,82.7
2017-10-19T00:14:41.546Z,82.7
2017-10-19T00:14:54.922Z,82.51
2017-10-19T00:15:08.349Z,82.8
2017-10-19T00:15:21.809Z,82.32
2017-10-19T00:15:36.071Z,82.32
2017-10-19T00:15:49.552Z,82.22
2017-10-19T00:16:02.525Z,81.93
2017-10-19T00:16:15.422Z,81.7
2017-10-19T00:16:28.887Z,81.73
2017-10-19T00:16:42.363Z,82.28
2017-10-19T00:16:54.732Z,81.89
2017-10-19T00:17:07.685Z,81.89
2017-10-19T00:17:21.117Z,82.22
2017-10-19T00:17:34.565Z,82.51
2017-10-19T00:17:47.994Z,82.47
2017-10-19T00:18:00.898Z,82.28
2017-10-19T00:18:12.712Z,82.47
2017-10-19T00:18:26.200Z,81.98
2017-10-19T00:18:39.702Z,81.79
2017-10-19T00:18:52.617Z,81.98
2017-10-19T00:19:06.036Z,81.98
2017-10-19T00:19:19.527Z,82.18
2017-10-19T00:19:32.466Z,82.08
2017-10-19T00:19:45.893Z,82.47
2017-10-19T00:19:59.370Z,82.37
2017-10-19T00:20:12.280Z,82.37
2017-10-19T00:20:25.688Z,82.37
2017-10-19T00:20:37.644Z,82.37
2017-10-19T00:20:51.146Z,82.47
2017-10-19T00:21:04.600Z,82.47
2017-10-19T00:21:17.526Z,82.37
2017-10-19T00:21:29.941Z,82.37
2017-10-19T00:21:42.870Z,82.47
2017-10-19T00:21:55.828Z,82.76
2017-10-19T00:22:09.310Z,82.57
2017-10-19T00:22:22.204Z,81.98
2017-10-19T00:22:35.716Z,82.37
2017-10-19T00:22:48.618Z,82.08
2017-10-19T00:23:02.076Z,82.47
2017-10-19T00:23:15.548Z,82.28
2017-10-19T00:23:29.017Z,82.28
2017-10-19T00:23:42.452Z,82.57
2017-10-19T00:23:55.363Z,82.47
2017-10-19T00:24:08.284Z,81.79
2017-10-19T00:24:21.185Z,82.08
2017-10-19T00:24:34.624Z,82.37
2017-10-19T00:24:48.028Z,82.37
2017-10-19T00:25:01.486Z,82.18
2017-10-19T00:25:14.959Z,81.79
2017-10-19T00:25:27.865Z,81.98
2017-10-19T00:25:40.703Z,82.28
2017-10-19T00:25:53.651Z,82.28
2017-10-19T00:26:07.112Z,82.18
2017-10-19T00:26:20.591Z,82.28
2017-10-19T00:26:32.929Z,82.23
2017-10-19T00:26:46.361Z,81.79
2017-10-19T00:26:59.851Z,81.79
2017-10-19T00:27:13.317Z,81.98
2017-10-19T00:27:26.735Z,81.6
2017-10-19T00:27:40.139Z,81.7
2017-10-19T00:27:53.593Z,81.5
2017-10-19T00:28:06.466Z,81.5
2017-10-19T00:28:19.840Z,81.6
2017-10-19T00:28:33.257Z,81.79
2017-10-19T00:28:46.163Z,81.89
2017-10-19T00:28:59.646Z,81.79
2017-10-19T00:29:13.109Z,81.7
2017-10-19T00:29:26.537Z,81.5
2017-10-19T00:29:39.972Z,81.5
2017-10-19T00:29:53.387Z,81.5
2017-10-19T00:30:06.270Z,81.5
2017-10-19T00:30:19.179Z,81.6
2017-10-19T00:30:32.632Z,81.12
2017-10-19T00:30:47.094Z,81.3
2017-10-19T00:31:00.565Z,81.3
2017-10-19T00:31:14.020Z,81.6
2017-10-19T00:31:27.470Z,81.4
2017-10-19T00:31:40.963Z,81.7
2017-10-19T00:31:54.461Z,81.79
2017-10-19T00:32:07.386Z,81.4
2017-10-19T00:32:20.872Z,81.5
2017-10-19T00:32:34.355Z,81.3
2017-10-19T00:32:47.792Z,81.6
2017-10-19T00:33:00.726Z,81.27
2017-10-19T00:33:14.181Z,81.5
2017-10-19T00:33:27.699Z,81.5
2017-10-19T00:33:40.096Z,81.6
2017-10-19T00:33:52.951Z,81.6
2017-10-19T00:34:05.855Z,81.12
2017-10-19T00:34:18.839Z,81.3
2017-10-19T00:34:32.299Z,81.12
2017-10-19T00:34:45.778Z,81.02
2017-10-19T00:34:59.273Z,81.5
2017-10-19T00:35:12.760Z,81.4
2017-10-19T00:35:26.224Z,81.3
2017-10-19T00:35:39.175Z,81.4
2017-10-19T00:35:51.498Z,81.21
2017-10-19T00:36:04.933Z,81.5
2017-10-19T00:36:18.354Z,80.92
2017-10-19T00:36:31.194Z,81.02
2017-10-19T00:36:44.605Z,81.02
2017-10-19T00:36:58.088Z,81.02
2017-10-19T00:37:11.511Z,81.3
2017-10-19T00:37:25.768Z,80.82
2017-10-19T00:37:39.218Z,80.63
2017-10-19T00:37:52.108Z,80.34
2017-10-19T00:38:05.597Z,80.34
2017-10-19T00:38:18.528Z,80.63
2017-10-19T00:38:31.438Z,81.02
2017-10-19T00:38:44.350Z,81.21
2017-10-19T00:38:57.767Z,81.7
2017-10-19T00:39:11.176Z,81.7
2017-10-19T00:39:24.650Z,81.12
2017-10-19T00:39:37.523Z,81.21
2017-10-19T00:39:50.444Z,80.73
2017-10-19T00:40:03.314Z,80.54
2017-10-19T00:40:16.777Z,80.44
2017-10-19T00:40:30.320Z,80.82
2017-10-19T00:40:43.790Z,80.73
2017-10-19T00:40:56.180Z,80.82
2017-10-19T00:41:09.614Z,80.44
2017-10-19T00:41:23.090Z,80.44
2017-10-19T00:41:35.966Z,80.24
2017-10-19T00:41:49.444Z,80.82
2017-10-19T00:42:02.979Z,81.3
2017-10-19T00:42:16.456Z,81.07
2017-10-19T00:42:29.333Z,81.12
2017-10-19T00:42:42.814Z,80.92
2017-10-19T00:42:56.290Z,81.21
2017-10-19T00:43:09.256Z,81.3
2017-10-19T00:43:22.693Z,81.02
2017-10-19T00:43:36.169Z,81.21
2017-10-19T00:43:49.057Z,81.4
2017-10-19T00:44:02.526Z,81.21
2017-10-19T00:44:14.854Z,81.21
2017-10-19T00:44:28.372Z,81.3
2017-10-19T00:44:41.836Z,81.4
2017-10-19T00:44:54.737Z,81.12
2017-10-19T00:45:07.634Z,81.02
2017-10-19T00:45:21.104Z,81.21
2017-10-19T00:45:34.575Z,80.92
2017-10-19T00:45:48.699Z,81.21
2017-10-19T00:46:01.628Z,80.92
2017-10-19T00:46:14.585Z,81.4
2017-10-19T00:46:28.074Z,81.6
2017-10-19T00:46:40.454Z,81.7
2017-10-19T00:46:53.913Z,80.98
2017-10-19T00:47:06.819Z,81.65
2017-10-19T00:47:20.280Z,81.7
2017-10-19T00:47:32.641Z,81.46
2017-10-19T00:47:45.496Z,81.46
2017-10-19T00:48:00.286Z,81.46
2017-10-19T00:48:13.204Z,81.27
2017-10-19T00:48:26.599Z,81.85
2017-10-19T00:48:40.041Z,81.46
2017-10-19T00:48:53.517Z,81.85
2017-10-19T00:49:06.448Z,81.75
2017-10-19T00:49:19.891Z,81.85
2017-10-19T00:49:33.325Z,81.95
2017-10-19T00:49:46.776Z,81.56
2017-10-19T00:49:59.624Z,81.56
2017-10-19T00:50:12.540Z,81.65
2017-10-19T00:50:25.957Z,81.46
2017-10-19T00:50:39.430Z,81.56
2017-10-19T00:50:52.887Z,81.46
2017-10-19T00:51:05.737Z,81.56
2017-10-19T00:51:19.197Z,81.65
2017-10-19T00:51:32.070Z,81.75
2017-10-19T00:51:45.007Z,81.85
2017-10-19T00:51:57.361Z,82.23
2017-10-19T00:52:10.819Z,81.75
2017-10-19T00:52:24.326Z,82.04
2017-10-19T00:52:37.218Z,82.43
2017-10-19T00:52:50.081Z,82.33
2017-10-19T00:53:03.550Z,82.43
2017-10-19T00:53:16.493Z,82.23
2017-10-19T00:53:29.957Z,82.43
2017-10-19T00:53:43.468Z,82.43
2017-10-19T00:53:56.380Z,82.43
2017-10-19T00:54:08.183Z,82.2
2017-10-19T00:54:21.627Z,82.33
2017-10-19T00:54:34.525Z,82.72
2017-10-19T00:54:47.406Z,82.43
2017-10-19T00:55:01.123Z,82.43
2017-10-19T00:55:14.033Z,82.91
2017-10-19T00:55:27.538Z,82.72
2017-10-19T00:55:40.998Z,82.72
2017-10-19T00:55:53.945Z,83.36
2017-10-19T00:56:06.301Z,82.78
2017-10-19T00:56:19.197Z,82.68
2017-10-19T00:56:32.701Z,82.58
2017-10-19T00:56:45.647Z,82.2
2017-10-19T00:56:58.584Z,82.68
2017-10-19T00:57:12.066Z,82.68
2017-10-19T00:57:25.555Z,82.68
2017-10-19T00:57:39.072Z,82.87
2017-10-19T00:57:52.506Z,82.39
2017-10-19T00:58:05.917Z,82.39
2017-10-19T00:58:19.374Z,82.29
2017-10-19T00:58:32.265Z,82.33
2017-10-19T00:58:45.147Z,82.2
2017-10-19T00:58:58.566Z,82.1
2017-10-19T00:59:11.966Z,81.81
2017-10-19T00:59:25.394Z,82
2017-10-19T00:59:38.854Z,82.39
2017-10-19T00:59:52.384Z,81.42
2017-10-19T01:00:05.764Z,81.46
2017-10-19T01:00:19.250Z,82
2017-10-19T01:00:32.726Z,81.9
2017-10-19T01:00:46.211Z,81.62
2017-10-19T01:00:59.820Z,81.42
2017-10-19T01:01:12.776Z,81.52
2017-10-19T01:01:25.625Z,81.13
2017-10-19T01:01:38.538Z,81.75
2017-10-19T01:01:51.469Z,81.9
2017-10-19T01:02:03.854Z,81.52
2017-10-19T01:02:16.797Z,81.62
2017-10-19T01:02:30.284Z,81.27
2017-10-19T01:02:43.680Z,81.07
2017-10-19T01:02:56.643Z,81.71
2017-10-19T01:03:10.160Z,81.85
2017-10-19T01:03:23.618Z,81.75
2017-10-19T01:03:37.097Z,81.56
2017-10-19T01:03:50.547Z,81.62
2017-10-19T01:04:03.547Z,81.37
2017-10-19T01:04:16.423Z,81.46
2017-10-19T01:04:29.850Z,81.56
2017-10-19T01:04:42.774Z,81.9
2017-10-19T01:04:56.206Z,82.43
2017-10-19T01:05:09.683Z,82.2
2017-10-19T01:05:23.100Z,82.04
2017-10-19T01:05:36.544Z,82
2017-10-19T01:05:50.029Z,82.04
2017-10-19T01:06:03.530Z,82
2017-10-19T01:06:16.978Z,82.14
2017-10-19T01:06:29.851Z,82.2
2017-10-19T01:06:43.308Z,82.1
2017-10-19T01:06:56.777Z,82.2
2017-10-19T01:07:10.194Z,81.95
2017-10-19T01:07:23.644Z,82.1
2017-10-19T01:07:37.138Z,82.1
2017-10-19T01:07:50.587Z,82
2017-10-19T01:08:04.065Z,81.9
2017-10-19T01:08:17.206Z,82.1
2017-10-19T01:08:30.656Z,81.81
2017-10-19T01:08:44.160Z,81.81
2017-10-19T01:08:57.620Z,82.39
2017-10-19T01:09:10.753Z,82.2
2017-10-19T01:09:24.227Z,82.29
2017-10-19T01:09:37.742Z,82.29
2017-10-19T01:09:51.180Z,82.1
2017-10-19T01:10:04.634Z,82.2
2017-10-19T01:10:18.100Z,82.1
2017-10-19T01:10:31.028Z,82.39
2017-10-19T01:10:44.465Z,82.2
2017-10-19T01:10:57.898Z,82.2
2017-10-19T01:11:10.754Z,82.78
2017-10-19T01:11:23.090Z,82.1
2017-10-19T01:11:35.488Z,82.2
2017-10-19T01:11:48.967Z,82.48
2017-10-19T01:12:02.477Z,82.29
2017-10-19T01:12:15.981Z,82.58
2017-10-19T01:12:28.327Z,82.78
2017-10-19T01:12:41.834Z,82.78
2017-10-19T01:12:54.744Z,82.68
2017-10-19T01:13:08.203Z,82.58
2017-10-19T01:13:21.727Z,82.68
2017-10-19T01:13:34.647Z,82.39
2017-10-19T01:13:48.069Z,82.39
2017-10-19T01:14:01.068Z,82.48
2017-10-19T01:14:14.507Z,82.29
2017-10-19T01:14:27.397Z,82.97
2017-10-19T01:14:40.828Z,82.39
2017-10-19T01:14:53.780Z,81.71
2017-10-19T01:15:07.268Z,81.71
2017-10-19T01:15:20.177Z,82.1
2017-10-19T01:15:33.646Z,81.71
2017-10-19T01:15:47.085Z,82
2017-10-19T01:16:00.647Z,82.48
2017-10-19T01:16:14.078Z,82.2
2017-10-19T01:16:27.006Z,82.68
2017-10-19T01:16:40.552Z,82.68
2017-10-19T01:16:54.036Z,82.39
2017-10-19T01:17:07.486Z,82.58
2017-10-19T01:17:20.966Z,83.16
2017-10-19T01:17:33.896Z,83.36
2017-10-19T01:17:47.322Z,82.97
2017-10-19T01:18:00.770Z,83.06
2017-10-19T01:18:14.237Z,83.06
2017-10-19T01:18:27.149Z,83.06
2017-10-19T01:18:39.938Z,83.26
2017-10-19T01:18:52.844Z,82.97
2017-10-19T01:19:05.759Z,82.97
2017-10-19T01:19:19.689Z,83.22
2017-10-19T01:19:32.648Z,83.36
2017-10-19T01:19:46.117Z,83.22
2017-10-19T01:19:58.981Z,83.12
2017-10-19T01:20:12.409Z,83.36
2017-10-19T01:20:25.886Z,83.64
2017-10-19T01:20:39.382Z,83.51
2017-10-19T01:20:52.330Z,83.31
2017-10-19T01:21:05.922Z,83.74
2017-10-19T01:21:19.429Z,84.03
2017-10-19T01:21:32.936Z,83.7
2017-10-19T01:21:45.887Z,83.8
2017-10-19T01:21:59.302Z,83.89
2017-10-19T01:22:12.250Z,83.89
2017-10-19T01:22:25.184Z,83.8
2017-10-19T01:22:38.593Z,83.8
2017-10-19T01:22:51.560Z,83.99
2017-10-19T01:23:04.454Z,83.61
2017-10-19T01:23:17.936Z,83.8
2017-10-19T01:23:31.441Z,83.8
2017-10-19T01:23:43.837Z,83.8
2017-10-19T01:23:57.230Z,83.89
2017-10-19T01:24:10.676Z,83.89
2017-10-19T01:24:23.126Z,83.61
2017-10-19T01:24:36.636Z,83.51
2017-10-19T01:24:48.987Z,83.41
2017-10-19T01:25:01.349Z,83.61
2017-10-19T01:25:14.855Z,83.61
2017-10-19T01:25:28.293Z,83.61
2017-10-19T01:25:41.773Z,83.41
2017-10-19T01:25:54.706Z,83.12
2017-10-19T01:26:08.173Z,83.12
2017-10-19T01:26:20.562Z,83.22
2017-10-19T01:26:33.521Z,83.41
2017-10-19T01:26:47.034Z,83.12
2017-10-19T01:27:00.520Z,83.16
2017-10-19T01:27:13.460Z,83.22
2017-10-19T01:27:26.312Z,83.12
2017-10-19T01:27:39.780Z,83.22
2017-10-19T01:27:53.195Z,83.12
2017-10-19T01:28:06.675Z,83.06
2017-10-19T01:28:20.157Z,83.31
2017-10-19T01:28:33.580Z,83.22
2017-10-19T01:28:46.987Z,83.22
2017-10-19T01:28:59.913Z,83.03
2017-10-19T01:29:13.066Z,83.12
2017-10-19T01:29:26.525Z,83.03
2017-10-19T01:29:39.956Z,83.03
2017-10-19T01:29:52.364Z,82.93
2017-10-19T01:30:05.261Z,83.36
2017-10-19T01:30:18.657Z,82.83
2017-10-19T01:30:31.639Z,83.16
2017-10-19T01:30:44.563Z,82.83
2017-10-19T01:30:57.450Z,82.58
2017-10-19T01:31:11.038Z,83.03
2017-10-19T01:31:24.487Z,82.83
2017-10-19T01:31:37.421Z,82.54
2017-10-19T01:31:50.871Z,82.64
2017-10-19T01:32:04.319Z,82.54
2017-10-19T01:32:18.012Z,82.87
2017-10-19T01:32:30.961Z,82.64
2017-10-19T01:32:43.329Z,82.45
2017-10-19T01:32:55.729Z,82.25
2017-10-19T01:33:08.663Z,82.35
2017-10-19T01:33:21.631Z,82.39
2017-10-19T01:33:34.551Z,82.83
2017-10-19T01:33:48.010Z,82.54
2017-10-19T01:34:00.897Z,82.54
2017-10-19T01:34:13.791Z,82.68
2017-10-19T01:34:26.137Z,83.03
2017-10-19T01:34:39.058Z,83.03
2017-10-19T01:34:52.577Z,82.78
2017-10-19T01:35:05.543Z,83.12
2017-10-19T01:35:18.988Z,82.97
2017-10-19T01:35:32.547Z,83.06
2017-10-19T01:35:45.975Z,82.58
2017-10-19T01:35:58.342Z,82.39
2017-10-19T01:36:11.799Z,82.58
2017-10-19T01:36:24.687Z,83.12
2017-10-19T01:36:38.118Z,82.93
2017-10-19T01:36:51.051Z,82.93
2017-10-19T01:37:04.514Z,83.31
2017-10-19T01:37:17.438Z,82.93
2017-10-19T01:37:30.391Z,83.12
2017-10-19T01:37:43.329Z,83.12
2017-10-19T01:37:56.435Z,83.12
2017-10-19T01:38:09.343Z,83.12
2017-10-19T01:38:22.249Z,83.03
2017-10-19T01:38:34.605Z,82.93
2017-10-19T01:38:47.000Z,83.22
2017-10-19T01:38:59.905Z,83.31
2017-10-19T01:39:13.390Z,83.03
2017-10-19T01:39:26.827Z,83.12
2017-10-19T01:39:40.276Z,83.31
2017-10-19T01:39:53.157Z,83.22
2017-10-19T01:40:06.089Z,83.22
2017-10-19T01:40:19.537Z,83.22
2017-10-19T01:40:32.978Z,83.41
2017-10-19T01:40:46.486Z,83.12
2017-10-19T01:40:59.930Z,82.93
2017-10-19T01:41:12.844Z,83.03
2017-10-19T01:41:25.795Z,83.22
2017-10-19T01:41:38.693Z,82.93
2017-10-19T01:41:51.561Z,83.03
2017-10-19T01:42:05.059Z,83.61
2017-10-19T01:42:18.591Z,83.61
2017-10-19T01:42:31.519Z,83.51
2017-10-19T01:42:45.026Z,83.31
2017-10-19T01:42:58.569Z,83.31
2017-10-19T01:43:10.964Z,83.8
2017-10-19T01:43:24.391Z,83.61
2017-10-19T01:43:37.840Z,83.61
2017-10-19T01:43:50.777Z,83.61
2017-10-19T01:44:04.203Z,83.12
2017-10-19T01:44:17.158Z,83.8
2017-10-19T01:44:30.094Z,83.7
2017-10-19T01:44:43.052Z,83.61
2017-10-19T01:44:55.470Z,83.51
2017-10-19T01:45:08.346Z,83.41
2017-10-19T01:45:21.787Z,83.61
2017-10-19T01:45:35.226Z,83.51
2017-10-19T01:45:48.135Z,83.61
2017-10-19T01:46:01.655Z,83.51
2017-10-19T01:46:15.761Z,83.41
2017-10-19T01:46:29.200Z,83.41
2017-10-19T01:46:42.641Z,83.41
2017-10-19T01:46:56.085Z,83.75
2017-10-19T01:47:09.551Z,83.51
2017-10-19T01:47:22.954Z,83.7
2017-10-19T01:47:36.370Z,83.51
2017-10-19T01:47:49.258Z,83.41
2017-10-19T01:48:01.111Z,83.41
2017-10-19T01:48:14.073Z,83.41
2017-10-19T01:48:27.055Z,83.51
2017-10-19T01:48:40.490Z,83.51
2017-10-19T01:48:52.851Z,83.31
2017-10-19T01:49:06.295Z,83.41
2017-10-19T01:49:19.766Z,83.41
2017-10-19T01:49:33.237Z,83.61
2017-10-19T01:49:46.690Z,83.18
2017-10-19T01:49:59.628Z,83.03
2017-10-19T01:50:13.125Z,83.03
2017-10-19T01:50:26.548Z,83.12
2017-10-19T01:50:40.005Z,83.12
2017-10-19T01:50:52.910Z,83.8
2017-10-19T01:51:06.377Z,83.41
2017-10-19T01:51:19.823Z,83.61
2017-10-19T01:51:33.262Z,83.51
2017-10-19T01:51:46.164Z,83.61
2017-10-19T01:51:59.625Z,83.31
2017-10-19T01:52:11.988Z,83.41
2017-10-19T01:52:24.884Z,83.41
2017-10-19T01:52:37.825Z,83.41
2017-10-19T01:52:50.724Z,83.47
2017-10-19T01:53:03.640Z,83.51
2017-10-19T01:53:15.993Z,83.7
2017-10-19T01:53:29.452Z,83.37
2017-10-19T01:53:42.843Z,83.51
2017-10-19T01:53:56.364Z,83.99
2017-10-19T01:54:09.265Z,83.89
2017-10-19T01:54:22.147Z,83.8
2017-10-19T01:54:35.625Z,83.8
2017-10-19T01:54:48.544Z,83.8
2017-10-19T01:55:01.522Z,84.09
2017-10-19T01:55:14.999Z,83.85
2017-10-19T01:55:27.929Z,83.8
2017-10-19T01:55:40.855Z,83.95
2017-10-19T01:55:54.344Z,83.85
2017-10-19T01:56:07.167Z,83.66
2017-10-19T01:56:20.650Z,83.75
2017-10-19T01:56:33.560Z,83.95
2017-10-19T01:56:45.946Z,83.75
2017-10-19T01:56:59.388Z,83.75
2017-10-19T01:57:12.824Z,83.66
2017-10-19T01:57:25.718Z,83.75
2017-10-19T01:57:39.188Z,83.66
2017-10-19T01:57:52.643Z,84.14
2017-10-19T01:58:05.596Z,84.05
2017-10-19T01:58:18.445Z,84.05
2017-10-19T01:58:31.906Z,84.14
2017-10-19T01:58:44.300Z,83.85
2017-10-19T01:58:57.236Z,83.85
2017-10-19T01:59:10.687Z,83.85
2017-10-19T01:59:23.587Z,83.85
2017-10-19T01:59:37.049Z,84.33
2017-10-19T01:59:49.440Z,84.33
2017-10-19T02:00:02.877Z,84.72
2017-10-19T02:00:15.758Z,84.72
2017-10-19T02:00:29.199Z,84.24
2017-10-19T02:00:42.594Z,84.53
2017-10-19T02:00:56.074Z,84.53
2017-10-19T02:01:08.433Z,84.82
2017-10-19T02:01:22.510Z,84.82
2017-10-19T02:01:36.002Z,84.72
2017-10-19T02:01:49.478Z,84.63
2017-10-19T02:02:02.392Z,84.53
2017-10-19T02:02:15.834Z,84.24
2017-10-19T02:02:29.290Z,84.43
2017-10-19T02:02:42.769Z,84.63
2017-10-19T02:02:55.156Z,84.63
2017-10-19T02:03:08.102Z,84.43
2017-10-19T02:03:21.552Z,84.53
2017-10-19T02:03:35.042Z,84.63
2017-10-19T02:03:48.504Z,84.82
2017-10-19T02:04:01.432Z,84.53
2017-10-19T02:04:14.376Z,84.43
2017-10-19T02:04:27.885Z,84.33
2017-10-19T02:04:40.747Z,84.24
2017-10-19T02:04:53.113Z,84.33
2017-10-19T02:05:05.511Z,84.24
2017-10-19T02:05:18.439Z,84.33
2017-10-19T02:05:31.912Z,84.53
2017-10-19T02:05:45.373Z,84.43
2017-10-19T02:05:58.828Z,84.63
2017-10-19T02:06:12.285Z,84.63
2017-10-19T02:06:25.401Z,84.72
2017-10-19T02:06:38.878Z,84.82
2017-10-19T02:06:51.831Z,84.53
2017-10-19T02:07:05.302Z,84.43
2017-10-19T02:07:18.244Z,84.53
2017-10-19T02:07:31.212Z,84.53
2017-10-19T02:07:43.553Z,84.91
2017-10-19T02:07:55.351Z,84.43
2017-10-19T02:08:08.332Z,84.53
2017-10-19T02:08:20.735Z,84.82
2017-10-19T02:08:34.169Z,84.82
2017-10-19T02:08:47.035Z,84.53
2017-10-19T02:09:00.435Z,84.82
2017-10-19T02:09:13.910Z,84.63
2017-10-19T02:09:27.412Z,84.24
2017-10-19T02:09:40.900Z,84.53
2017-10-19T02:09:54.360Z,84.53
2017-10-19T02:10:06.752Z,84.33
2017-10-19T02:10:19.120Z,84.43
2017-10-19T02:10:32.586Z,84.72
2017-10-19T02:10:46.048Z,84.63
2017-10-19T02:10:58.960Z,84.53
2017-10-19T02:11:12.455Z,84.43
2017-10-19T02:11:25.901Z,84.43
2017-10-19T02:11:38.848Z,84.33
2017-10-19T02:11:51.813Z,84.63
2017-10-19T02:12:04.758Z,84.43
2017-10-19T02:12:17.722Z,84.63
2017-10-19T02:12:31.178Z,84.63
2017-10-19T02:12:44.712Z,84.82
2017-10-19T02:12:58.150Z,84.53
2017-10-19T02:13:10.445Z,84.91
2017-10-19T02:13:23.899Z,84.63
2017-10-19T02:13:37.395Z,84.63
2017-10-19T02:13:50.864Z,84.53
2017-10-19T02:14:04.359Z,84.82
2017-10-19T02:14:17.348Z,84.63
2017-10-19T02:14:30.806Z,84.91
2017-10-19T02:14:44.250Z,85.21
2017-10-19T02:14:57.119Z,85.11
2017-10-19T02:15:09.590Z,84.63
2017-10-19T02:15:23.030Z,85.21
2017-10-19T02:15:35.982Z,85.21
2017-10-19T02:15:48.938Z,84.91
2017-10-19T02:16:01.279Z,85.01
2017-10-19T02:16:14.784Z,85.49
2017-10-19T02:16:28.842Z,85.49
2017-10-19T02:16:42.304Z,85.69
2017-10-19T02:16:55.213Z,85.4
2017-10-19T02:17:08.681Z,85.69
2017-10-19T02:17:21.558Z,85.49
2017-10-19T02:17:35.001Z,85.78
2017-10-19T02:17:47.946Z,85.49
2017-10-19T02:18:00.302Z,85.26
2017-10-19T02:18:13.730Z,85.49
2017-10-19T02:18:26.057Z,85.49
2017-10-19T02:18:39.456Z,85.59
2017-10-19T02:18:51.878Z,85.49
2017-10-19T02:19:05.369Z,85.55
2017-10-19T02:19:18.819Z,85.4
2017-10-19T02:19:31.775Z,85.78
2017-10-19T02:19:45.224Z,85.26
2017-10-19T02:19:57.633Z,85.49
2017-10-19T02:20:10.537Z,85.26
2017-10-19T02:20:23.485Z,85.16
2017-10-19T02:20:35.903Z,85.16
2017-10-19T02:20:49.391Z,84.88
2017-10-19T02:21:02.863Z,85.11
2017-10-19T02:21:15.248Z,84.97
2017-10-19T02:21:28.727Z,85.06
2017-10-19T02:21:41.622Z,85.01
2017-10-19T02:21:54.518Z,85.11
2017-10-19T02:22:07.415Z,84.97
2017-10-19T02:22:20.330Z,85.21
2017-10-19T02:22:33.860Z,85.21
2017-10-19T02:22:47.353Z,84.78
2017-10-19T02:23:00.815Z,84.82
2017-10-19T02:23:13.697Z,84.48
2017-10-19T02:23:27.161Z,84.63
2017-10-19T02:23:40.660Z,84.78
2017-10-19T02:23:54.105Z,84.53
2017-10-19T02:24:07.560Z,84.91
2017-10-19T02:24:20.435Z,84.91
2017-10-19T02:24:33.919Z,85.11
2017-10-19T02:24:46.823Z,85.21
2017-10-19T02:24:59.819Z,85.3
2017-10-19T02:25:12.719Z,85.01
2017-10-19T02:25:25.025Z,85.11
2017-10-19T02:25:38.528Z,84.91
2017-10-19T02:25:51.432Z,84.91
2017-10-19T02:26:04.965Z,85.21
2017-10-19T02:26:18.421Z,84.53
2017-10-19T02:26:31.876Z,84.63
2017-10-19T02:26:44.808Z,84.63
2017-10-19T02:26:57.692Z,84.63
2017-10-19T02:27:10.095Z,84.82
2017-10-19T02:27:23.554Z,84.63
2017-10-19T02:27:37.024Z,84.48
2017-10-19T02:27:49.393Z,84.58
2017-10-19T02:28:02.916Z,84.58
2017-10-19T02:28:16.380Z,84.39
2017-10-19T02:28:29.304Z,85.21
2017-10-19T02:28:42.233Z,85.16
2017-10-19T02:28:55.698Z,85.01
2017-10-19T02:29:08.069Z,84.88
2017-10-19T02:29:20.434Z,85.26
2017-10-19T02:29:33.866Z,84.91
2017-10-19T02:29:47.384Z,84.88
2017-10-19T02:30:00.239Z,85.06
2017-10-19T02:30:13.728Z,84.97
2017-10-19T02:30:26.637Z,85.06
2017-10-19T02:30:40.121Z,85.06
2017-10-19T02:30:53.570Z,85.21
2017-10-19T02:31:06.522Z,85.16
2017-10-19T02:31:19.991Z,84.97
2017-10-19T02:31:34.143Z,85.06
2017-10-19T02:31:46.488Z,85.06
2017-10-19T02:31:59.921Z,84.88
2017-10-19T02:32:12.850Z,84.97
2017-10-19T02:32:25.763Z,85.06
2017-10-19T02:32:38.702Z,85.3
2017-10-19T02:32:52.172Z,85.36
2017-10-19T02:33:05.067Z,85.78
2017-10-19T02:33:17.441Z,85.55
2017-10-19T02:33:30.356Z,85.06
2017-10-19T02:33:43.870Z,85.55
2017-10-19T02:33:57.369Z,85.16
2017-10-19T02:34:10.825Z,85.64
2017-10-19T02:34:23.723Z,85.74
2017-10-19T02:34:37.173Z,85.74
2017-10-19T02:34:50.650Z,85.94
2017-10-19T02:35:03.607Z,85.84
2017-10-19T02:35:17.128Z,85.74
2017-10-19T02:35:30.563Z,85.74
2017-10-19T02:35:43.457Z,85.84
2017-10-19T02:35:56.901Z,85.64
2017-10-19T02:36:09.786Z,85.64
2017-10-19T02:36:23.307Z,85.84
2017-10-19T02:36:36.225Z,85.94
2017-10-19T02:36:49.644Z,85.64
2017-10-19T02:37:02.542Z,85.74
2017-10-19T02:37:15.716Z,85.74
2017-10-19T02:37:29.186Z,85.84
2017-10-19T02:37:42.109Z,85.36
2017-10-19T02:37:55.018Z,85.36
2017-10-19T02:38:07.913Z,85.64
2017-10-19T02:38:21.380Z,85.45
2017-10-19T02:38:34.304Z,85.26
2017-10-19T02:38:47.748Z,85.64
2017-10-19T02:39:00.155Z,85.06
2017-10-19T02:39:13.647Z,85.36
2017-10-19T02:39:27.060Z,85.74
2017-10-19T02:39:40.519Z,85.84
2017-10-19T02:39:53.978Z,85.55
2017-10-19T02:40:06.870Z,85.36
2017-10-19T02:40:19.751Z,85.55
2017-10-19T02:40:32.699Z,85.16
2017-10-19T02:40:45.047Z,84.97
2017-10-19T02:40:56.865Z,84.97
2017-10-19T02:41:09.814Z,85.06
2017-10-19T02:41:23.297Z,84.78
2017-10-19T02:41:36.219Z,85.16
2017-10-19T02:41:48.557Z,85.06
2017-10-19T02:42:02.047Z,84.88
2017-10-19T02:42:15.523Z,85.26
2017-10-19T02:42:29.039Z,85.16
2017-10-19T02:42:42.496Z,84.68
2017-10-19T02:42:55.405Z,84.82
2017-10-19T02:43:09.015Z,84.48
2017-10-19T02:43:21.409Z,84.58
2017-10-19T02:43:34.366Z,84.53
2017-10-19T02:43:47.837Z,84.72
2017-10-19T02:44:00.727Z,84.33
2017-10-19T02:44:14.176Z,84.91
2017-10-19T02:44:27.589Z,84.78
2017-10-19T02:44:39.443Z,84.91
2017-10-19T02:44:51.773Z,84.91
2017-10-19T02:45:05.263Z,84.43
2017-10-19T02:45:18.761Z,84.91
2017-10-19T02:45:32.233Z,84.53
2017-10-19T02:45:45.110Z,84.53
2017-10-19T02:45:58.015Z,84.63
2017-10-19T02:46:10.933Z,84.53
2017-10-19T02:46:24.415Z,84.63
2017-10-19T02:46:37.953Z,84.53
2017-10-19T02:46:51.436Z,84.24
2017-10-19T02:47:03.837Z,84.24
2017-10-19T02:47:16.726Z,84.05
2017-10-19T02:47:30.184Z,84.43
2017-10-19T02:47:43.662Z,84.63
2017-10-19T02:47:57.351Z,84.43
2017-10-19T02:48:10.859Z,84.43
2017-10-19T02:48:22.754Z,84.05
2017-10-19T02:48:36.212Z,84.43
2017-10-19T02:48:48.565Z,84.33
2017-10-19T02:49:01.491Z,84.33
2017-10-19T02:49:13.908Z,84.72
2017-10-19T02:49:27.608Z,84.43
2017-10-19T02:49:41.080Z,84.63
2017-10-19T02:49:54.562Z,84.91
2017-10-19T02:50:08.008Z,84.43
2017-10-19T02:50:21.516Z,84.78
2017-10-19T02:50:34.967Z,84.97